sensor_id;sensor_type;location;lat;lon;timestamp;P1;durP1;ratioP1;P2;durP2;ratioP2
15340;SDS011;7770;52.158;5.372;2023-07-22T00:01:17;22.80;;;18.70;;
15340;SDS011;7770;52.158;5.372;2023-07-22T00:04:03;25.40;;;18.93;;
15340;SDS011;7770;52.158;5.372;2023-07-22T00:06:49;27.23;;;19.87;;
15340;SDS011;7770;52.158;5.372;2023-07-22T00:09:35;26.77;;;19.53;;
15340;SDS011;7770;52.158;5.372;2023-07-22T00:12:21;25.00;;;20.20;;
15340;SDS011;7770;52.158;5.372;2023-07-22T00:15:10;24.23;;;19.27;;
15340;SDS011;7770;52.158;5.372;2023-07-22T00:17:57;25.93;;;20.73;;
15340;SDS011;7770;52.158;5.372;2023-07-22T00:20:43;24.27;;;19.67;;
15340;SDS011;7770;52.158;5.372;2023-07-22T00:23:29;25.40;;;20.43;;
15340;SDS011;7770;52.158;5.372;2023-07-22T00:26:15;28.23;;;21.03;;
15340;SDS011;7770;52.158;5.372;2023-07-22T00:29:01;23.90;;;19.50;;
15340;SDS011;7770;52.158;5.372;2023-07-22T00:31:47;28.47;;;20.80;;
15340;SDS011;7770;52.158;5.372;2023-07-22T00:34:34;28.23;;;21.47;;
15340;SDS011;7770;52.158;5.372;2023-07-22T00:37:22;26.23;;;21.30;;
15340;SDS011;7770;52.158;5.372;2023-07-22T00:40:08;28.70;;;22.97;;
15340;SDS011;7770;52.158;5.372;2023-07-22T00:42:57;30.43;;;24.23;;
15340;SDS011;7770;52.158;5.372;2023-07-22T00:45:44;30.07;;;24.43;;
15340;SDS011;7770;52.158;5.372;2023-07-22T00:48:30;29.43;;;24.07;;
15340;SDS011;7770;52.158;5.372;2023-07-22T00:51:17;33.00;;;23.73;;
15340;SDS011;7770;52.158;5.372;2023-07-22T00:54:04;28.93;;;23.10;;
15340;SDS011;7770;52.158;5.372;2023-07-22T00:56:50;31.43;;;24.17;;
15340;SDS011;7770;52.158;5.372;2023-07-22T00:59:37;31.13;;;24.40;;
15340;SDS011;7770;52.158;5.372;2023-07-22T01:02:25;33.50;;;24.43;;
15340;SDS011;7770;52.158;5.372;2023-07-22T01:05:11;31.57;;;24.23;;
15340;SDS011;7770;52.158;5.372;2023-07-22T01:07:58;31.77;;;25.27;;
15340;SDS011;7770;52.158;5.372;2023-07-22T01:10:44;31.30;;;24.03;;
15340;SDS011;7770;52.158;5.372;2023-07-22T01:13:30;31.33;;;24.07;;
15340;SDS011;7770;52.158;5.372;2023-07-22T01:16:16;28.87;;;21.80;;
15340;SDS011;7770;52.158;5.372;2023-07-22T01:19:02;28.70;;;23.00;;
15340;SDS011;7770;52.158;5.372;2023-07-22T01:21:50;28.37;;;22.20;;
15340;SDS011;7770;52.158;5.372;2023-07-22T01:24:36;28.47;;;23.13;;
15340;SDS011;7770;52.158;5.372;2023-07-22T01:27:24;28.03;;;21.17;;
15340;SDS011;7770;52.158;5.372;2023-07-22T01:30:10;25.87;;;21.13;;
15340;SDS011;7770;52.158;5.372;2023-07-22T01:32:56;29.43;;;22.57;;
15340;SDS011;7770;52.158;5.372;2023-07-22T01:35:42;26.97;;;22.37;;
15340;SDS011;7770;52.158;5.372;2023-07-22T01:38:28;26.80;;;22.80;;
15340;SDS011;7770;52.158;5.372;2023-07-22T01:41:14;28.27;;;22.70;;
15340;SDS011;7770;52.158;5.372;2023-07-22T01:44:00;28.63;;;22.57;;
15340;SDS011;7770;52.158;5.372;2023-07-22T01:46:46;32.10;;;22.30;;
15340;SDS011;7770;52.158;5.372;2023-07-22T01:49:32;31.87;;;24.73;;
15340;SDS011;7770;52.158;5.372;2023-07-22T01:52:19;31.70;;;24.50;;
15340;SDS011;7770;52.158;5.372;2023-07-22T01:55:05;33.07;;;24.23;;
15340;SDS011;7770;52.158;5.372;2023-07-22T01:57:56;29.63;;;23.03;;
15340;SDS011;7770;52.158;5.372;2023-07-22T02:00:42;30.80;;;23.63;;
15340;SDS011;7770;52.158;5.372;2023-07-22T02:03:28;34.53;;;24.40;;
15340;SDS011;7770;52.158;5.372;2023-07-22T02:06:14;31.87;;;23.83;;
15340;SDS011;7770;52.158;5.372;2023-07-22T02:09:00;30.30;;;23.73;;
15340;SDS011;7770;52.158;5.372;2023-07-22T02:11:53;30.87;;;23.37;;
15340;SDS011;7770;52.158;5.372;2023-07-22T02:14:39;32.07;;;24.53;;
15340;SDS011;7770;52.158;5.372;2023-07-22T02:17:25;32.33;;;24.43;;
15340;SDS011;7770;52.158;5.372;2023-07-22T02:20:11;32.90;;;24.07;;
15340;SDS011;7770;52.158;5.372;2023-07-22T02:22:57;32.70;;;24.43;;
15340;SDS011;7770;52.158;5.372;2023-07-22T02:25:43;31.93;;;24.73;;
15340;SDS011;7770;52.158;5.372;2023-07-22T02:28:34;30.93;;;24.30;;
15340;SDS011;7770;52.158;5.372;2023-07-22T02:31:20;33.17;;;25.87;;
15340;SDS011;7770;52.158;5.372;2023-07-22T02:34:07;33.17;;;25.50;;
15340;SDS011;7770;52.158;5.372;2023-07-22T02:36:53;32.23;;;25.23;;
15340;SDS011;7770;52.158;5.372;2023-07-22T02:39:39;31.73;;;26.20;;
15340;SDS011;7770;52.158;5.372;2023-07-22T02:42:25;33.33;;;26.60;;
15340;SDS011;7770;52.158;5.372;2023-07-22T02:45:11;31.07;;;25.03;;
15340;SDS011;7770;52.158;5.372;2023-07-22T02:47:57;33.67;;;25.23;;
15340;SDS011;7770;52.158;5.372;2023-07-22T02:50:43;33.87;;;25.37;;
15340;SDS011;7770;52.158;5.372;2023-07-22T02:53:29;32.07;;;24.97;;
15340;SDS011;7770;52.158;5.372;2023-07-22T02:56:16;31.77;;;26.07;;
15340;SDS011;7770;52.158;5.372;2023-07-22T02:59:02;32.77;;;25.33;;
15340;SDS011;7770;52.158;5.372;2023-07-22T03:01:48;33.40;;;25.47;;
15340;SDS011;7770;52.158;5.372;2023-07-22T03:04:34;31.03;;;24.93;;
15340;SDS011;7770;52.158;5.372;2023-07-22T03:07:20;33.77;;;25.40;;
15340;SDS011;7770;52.158;5.372;2023-07-22T03:10:06;30.07;;;23.20;;
15340;SDS011;7770;52.158;5.372;2023-07-22T03:12:53;31.47;;;23.83;;
15340;SDS011;7770;52.158;5.372;2023-07-22T03:15:40;31.20;;;23.57;;
15340;SDS011;7770;52.158;5.372;2023-07-22T03:18:26;29.97;;;23.73;;
15340;SDS011;7770;52.158;5.372;2023-07-22T03:21:12;27.63;;;23.07;;
15340;SDS011;7770;52.158;5.372;2023-07-22T03:23:59;29.33;;;22.90;;
15340;SDS011;7770;52.158;5.372;2023-07-22T03:26:45;31.37;;;23.57;;
15340;SDS011;7770;52.158;5.372;2023-07-22T03:29:31;29.83;;;23.00;;
15340;SDS011;7770;52.158;5.372;2023-07-22T03:32:17;30.87;;;23.40;;
15340;SDS011;7770;52.158;5.372;2023-07-22T03:35:04;28.40;;;22.93;;
15340;SDS011;7770;52.158;5.372;2023-07-22T03:37:50;27.10;;;21.43;;
15340;SDS011;7770;52.158;5.372;2023-07-22T03:40:36;26.87;;;20.17;;
15340;SDS011;7770;52.158;5.372;2023-07-22T03:43:23;26.43;;;20.20;;
15340;SDS011;7770;52.158;5.372;2023-07-22T03:46:09;26.33;;;20.03;;
15340;SDS011;7770;52.158;5.372;2023-07-22T03:48:55;24.20;;;18.93;;
15340;SDS011;7770;52.158;5.372;2023-07-22T03:51:41;26.10;;;19.00;;
15340;SDS011;7770;52.158;5.372;2023-07-22T03:54:27;21.93;;;17.47;;
15340;SDS011;7770;52.158;5.372;2023-07-22T03:57:13;21.30;;;17.90;;
15340;SDS011;7770;52.158;5.372;2023-07-22T03:59:59;20.67;;;17.63;;
15340;SDS011;7770;52.158;5.372;2023-07-22T04:02:45;20.80;;;16.90;;
15340;SDS011;7770;52.158;5.372;2023-07-22T04:05:31;20.70;;;17.27;;
15340;SDS011;7770;52.158;5.372;2023-07-22T04:08:17;21.60;;;18.03;;
15340;SDS011;7770;52.158;5.372;2023-07-22T04:11:03;19.27;;;16.63;;
15340;SDS011;7770;52.158;5.372;2023-07-22T04:13:49;19.63;;;16.30;;
15340;SDS011;7770;52.158;5.372;2023-07-22T04:16:35;20.30;;;16.37;;
15340;SDS011;7770;52.158;5.372;2023-07-22T04:19:21;19.97;;;16.30;;
15340;SDS011;7770;52.158;5.372;2023-07-22T04:22:07;19.77;;;17.07;;
15340;SDS011;7770;52.158;5.372;2023-07-22T04:24:53;19.97;;;16.00;;
15340;SDS011;7770;52.158;5.372;2023-07-22T04:27:39;19.80;;;17.20;;
15340;SDS011;7770;52.158;5.372;2023-07-22T04:30:25;23.63;;;18.20;;
15340;SDS011;7770;52.158;5.372;2023-07-22T04:33:11;26.57;;;20.37;;
15340;SDS011;7770;52.158;5.372;2023-07-22T04:35:59;29.03;;;21.73;;
15340;SDS011;7770;52.158;5.372;2023-07-22T04:38:46;30.13;;;22.87;;
15340;SDS011;7770;52.158;5.372;2023-07-22T04:41:32;28.27;;;22.70;;
15340;SDS011;7770;52.158;5.372;2023-07-22T04:44:19;31.33;;;22.63;;
15340;SDS011;7770;52.158;5.372;2023-07-22T04:47:05;32.87;;;23.67;;
15340;SDS011;7770;52.158;5.372;2023-07-22T04:49:51;31.70;;;23.50;;
15340;SDS011;7770;52.158;5.372;2023-07-22T04:52:37;32.93;;;23.00;;
15340;SDS011;7770;52.158;5.372;2023-07-22T04:55:23;29.53;;;23.83;;
15340;SDS011;7770;52.158;5.372;2023-07-22T04:58:09;35.30;;;24.33;;
15340;SDS011;7770;52.158;5.372;2023-07-22T05:00:57;31.23;;;24.40;;
15340;SDS011;7770;52.158;5.372;2023-07-22T05:03:43;33.43;;;23.53;;
15340;SDS011;7770;52.158;5.372;2023-07-22T05:06:30;34.20;;;24.50;;
15340;SDS011;7770;52.158;5.372;2023-07-22T05:09:16;33.90;;;24.77;;
15340;SDS011;7770;52.158;5.372;2023-07-22T05:12:02;33.70;;;23.90;;
15340;SDS011;7770;52.158;5.372;2023-07-22T05:14:48;30.87;;;23.60;;
15340;SDS011;7770;52.158;5.372;2023-07-22T05:17:34;34.17;;;23.27;;
15340;SDS011;7770;52.158;5.372;2023-07-22T05:20:20;31.23;;;24.03;;
15340;SDS011;7770;52.158;5.372;2023-07-22T05:23:07;30.83;;;23.63;;
15340;SDS011;7770;52.158;5.372;2023-07-22T05:25:53;33.10;;;24.10;;
15340;SDS011;7770;52.158;5.372;2023-07-22T05:28:39;28.97;;;24.40;;
15340;SDS011;7770;52.158;5.372;2023-07-22T05:31:25;30.27;;;24.17;;
15340;SDS011;7770;52.158;5.372;2023-07-22T05:34:11;29.70;;;24.50;;
15340;SDS011;7770;52.158;5.372;2023-07-22T05:36:57;30.30;;;24.77;;
15340;SDS011;7770;52.158;5.372;2023-07-22T05:39:44;34.43;;;25.50;;
15340;SDS011;7770;52.158;5.372;2023-07-22T05:42:30;31.70;;;24.63;;
15340;SDS011;7770;52.158;5.372;2023-07-22T05:45:16;32.83;;;24.80;;
15340;SDS011;7770;52.158;5.372;2023-07-22T05:48:02;36.07;;;26.43;;
15340;SDS011;7770;52.158;5.372;2023-07-22T05:50:48;32.87;;;25.97;;
15340;SDS011;7770;52.158;5.372;2023-07-22T05:53:34;31.10;;;25.90;;
15340;SDS011;7770;52.158;5.372;2023-07-22T05:56:20;33.33;;;25.57;;
15340;SDS011;7770;52.158;5.372;2023-07-22T05:59:06;31.77;;;25.00;;
15340;SDS011;7770;52.158;5.372;2023-07-22T06:01:52;31.70;;;25.90;;
15340;SDS011;7770;52.158;5.372;2023-07-22T06:04:38;33.07;;;25.63;;
15340;SDS011;7770;52.158;5.372;2023-07-22T06:07:25;31.37;;;25.57;;
15340;SDS011;7770;52.158;5.372;2023-07-22T06:10:11;32.27;;;24.70;;
15340;SDS011;7770;52.158;5.372;2023-07-22T06:12:57;29.60;;;24.03;;
15340;SDS011;7770;52.158;5.372;2023-07-22T06:15:43;30.17;;;24.50;;
15340;SDS011;7770;52.158;5.372;2023-07-22T06:18:29;30.50;;;25.03;;
15340;SDS011;7770;52.158;5.372;2023-07-22T06:21:15;30.53;;;24.23;;
15340;SDS011;7770;52.158;5.372;2023-07-22T06:24:01;29.67;;;23.63;;
15340;SDS011;7770;52.158;5.372;2023-07-22T06:26:47;32.57;;;24.70;;
15340;SDS011;7770;52.158;5.372;2023-07-22T06:29:33;32.10;;;24.70;;
15340;SDS011;7770;52.158;5.372;2023-07-22T06:32:19;28.57;;;24.20;;
15340;SDS011;7770;52.158;5.372;2023-07-22T06:35:05;29.80;;;23.83;;
15340;SDS011;7770;52.158;5.372;2023-07-22T06:37:51;27.63;;;23.50;;
15340;SDS011;7770;52.158;5.372;2023-07-22T06:40:37;26.17;;;22.60;;
15340;SDS011;7770;52.158;5.372;2023-07-22T06:43:23;28.37;;;22.23;;
15340;SDS011;7770;52.158;5.372;2023-07-22T06:46:09;26.23;;;22.50;;
15340;SDS011;7770;52.158;5.372;2023-07-22T06:48:55;28.73;;;23.37;;
15340;SDS011;7770;52.158;5.372;2023-07-22T06:51:41;27.43;;;22.90;;
15340;SDS011;7770;52.158;5.372;2023-07-22T06:54:27;26.77;;;22.67;;
15340;SDS011;7770;52.158;5.372;2023-07-22T06:57:13;27.00;;;21.60;;
15340;SDS011;7770;52.158;5.372;2023-07-22T07:00:00;27.63;;;22.40;;
15340;SDS011;7770;52.158;5.372;2023-07-22T07:02:46;24.53;;;21.90;;
15340;SDS011;7770;52.158;5.372;2023-07-22T07:05:32;25.73;;;21.90;;
15340;SDS011;7770;52.158;5.372;2023-07-22T07:08:20;25.90;;;21.90;;
15340;SDS011;7770;52.158;5.372;2023-07-22T07:11:06;25.70;;;22.37;;
15340;SDS011;7770;52.158;5.372;2023-07-22T07:13:52;25.00;;;21.53;;
15340;SDS011;7770;52.158;5.372;2023-07-22T07:16:38;24.17;;;21.47;;
15340;SDS011;7770;52.158;5.372;2023-07-22T07:19:25;24.33;;;21.50;;
15340;SDS011;7770;52.158;5.372;2023-07-22T07:22:12;25.60;;;22.73;;
15340;SDS011;7770;52.158;5.372;2023-07-22T07:24:58;24.33;;;21.80;;
15340;SDS011;7770;52.158;5.372;2023-07-22T07:27:44;26.77;;;21.77;;
15340;SDS011;7770;52.158;5.372;2023-07-22T07:30:30;25.77;;;23.03;;
15340;SDS011;7770;52.158;5.372;2023-07-22T07:33:17;25.70;;;23.10;;
15340;SDS011;7770;52.158;5.372;2023-07-22T07:36:03;25.17;;;22.30;;
15340;SDS011;7770;52.158;5.372;2023-07-22T07:38:50;24.70;;;22.00;;
15340;SDS011;7770;52.158;5.372;2023-07-22T07:41:35;26.60;;;22.67;;
15340;SDS011;7770;52.158;5.372;2023-07-22T07:44:23;25.17;;;22.43;;
15340;SDS011;7770;52.158;5.372;2023-07-22T07:47:09;25.37;;;20.93;;
15340;SDS011;7770;52.158;5.372;2023-07-22T07:49:55;24.33;;;21.47;;
15340;SDS011;7770;52.158;5.372;2023-07-22T07:52:41;25.67;;;20.63;;
15340;SDS011;7770;52.158;5.372;2023-07-22T07:55:27;24.10;;;19.77;;
15340;SDS011;7770;52.158;5.372;2023-07-22T07:58:13;21.60;;;19.30;;
15340;SDS011;7770;52.158;5.372;2023-07-22T08:00:59;20.80;;;18.60;;
15340;SDS011;7770;52.158;5.372;2023-07-22T08:03:45;22.27;;;18.93;;
15340;SDS011;7770;52.158;5.372;2023-07-22T08:06:31;20.57;;;18.33;;
15340;SDS011;7770;52.158;5.372;2023-07-22T08:09:18;21.77;;;18.47;;
15340;SDS011;7770;52.158;5.372;2023-07-22T08:12:05;22.63;;;18.47;;
15340;SDS011;7770;52.158;5.372;2023-07-22T08:14:52;22.47;;;18.40;;
15340;SDS011;7770;52.158;5.372;2023-07-22T08:17:39;20.17;;;17.60;;
15340;SDS011;7770;52.158;5.372;2023-07-22T08:20:25;19.17;;;17.23;;
15340;SDS011;7770;52.158;5.372;2023-07-22T08:23:11;19.30;;;17.23;;
15340;SDS011;7770;52.158;5.372;2023-07-22T08:25:57;19.10;;;17.20;;
15340;SDS011;7770;52.158;5.372;2023-07-22T08:28:43;19.37;;;17.37;;
15340;SDS011;7770;52.158;5.372;2023-07-22T08:31:29;19.07;;;17.00;;
15340;SDS011;7770;52.158;5.372;2023-07-22T08:34:15;17.93;;;16.13;;
15340;SDS011;7770;52.158;5.372;2023-07-22T08:37:01;17.83;;;16.13;;
15340;SDS011;7770;52.158;5.372;2023-07-22T08:39:47;19.07;;;17.17;;
15340;SDS011;7770;52.158;5.372;2023-07-22T08:42:33;19.30;;;17.37;;
15340;SDS011;7770;52.158;5.372;2023-07-22T08:45:21;17.90;;;16.00;;
15340;SDS011;7770;52.158;5.372;2023-07-22T08:48:16;15.97;;;14.30;;
15340;SDS011;7770;52.158;5.372;2023-07-22T08:51:10;15.70;;;14.07;;
15340;SDS011;7770;52.158;5.372;2023-07-22T08:54:02;16.20;;;14.53;;
15340;SDS011;7770;52.158;5.372;2023-07-22T08:56:49;16.17;;;14.47;;
15340;SDS011;7770;52.158;5.372;2023-07-22T08:59:35;14.37;;;12.73;;
15340;SDS011;7770;52.158;5.372;2023-07-22T09:02:22;12.97;;;11.57;;
15340;SDS011;7770;52.158;5.372;2023-07-22T09:05:10;12.50;;;11.20;;
15340;SDS011;7770;52.158;5.372;2023-07-22T09:07:56;12.20;;;10.87;;
15340;SDS011;7770;52.158;5.372;2023-07-22T09:10:43;11.00;;;9.87;;
15340;SDS011;7770;52.158;5.372;2023-07-22T09:13:30;10.70;;;9.60;;
15340;SDS011;7770;52.158;5.372;2023-07-22T09:16:17;12.93;;;10.50;;
15340;SDS011;7770;52.158;5.372;2023-07-22T09:19:03;14.87;;;10.27;;
15340;SDS011;7770;52.158;5.372;2023-07-22T09:21:50;11.90;;;10.23;;
15340;SDS011;7770;52.158;5.372;2023-07-22T09:24:36;14.43;;;10.67;;
15340;SDS011;7770;52.158;5.372;2023-07-22T09:27:32;12.20;;;10.53;;
15340;SDS011;7770;52.158;5.372;2023-07-22T09:30:20;12.40;;;10.80;;
15340;SDS011;7770;52.158;5.372;2023-07-22T09:33:21;13.33;;;10.17;;
15340;SDS011;7770;52.158;5.372;2023-07-22T09:36:09;10.50;;;9.40;;
15340;SDS011;7770;52.158;5.372;2023-07-22T09:39:00;10.63;;;9.53;;
15340;SDS011;7770;52.158;5.372;2023-07-22T09:41:50;10.17;;;9.17;;
15340;SDS011;7770;52.158;5.372;2023-07-22T09:44:38;9.87;;;8.80;;
15340;SDS011;7770;52.158;5.372;2023-07-22T09:47:24;10.27;;;9.10;;
15340;SDS011;7770;52.158;5.372;2023-07-22T09:50:10;10.40;;;9.33;;
15340;SDS011;7770;52.158;5.372;2023-07-22T09:53:04;9.93;;;8.93;;
15340;SDS011;7770;52.158;5.372;2023-07-22T09:55:50;10.27;;;8.97;;
15340;SDS011;7770;52.158;5.372;2023-07-22T09:58:38;11.10;;;8.83;;
15340;SDS011;7770;52.158;5.372;2023-07-22T10:01:26;9.30;;;7.90;;
15340;SDS011;7770;52.158;5.372;2023-07-22T10:04:12;9.90;;;8.40;;
15340;SDS011;7770;52.158;5.372;2023-07-22T10:07:03;12.17;;;9.20;;
15340;SDS011;7770;52.158;5.372;2023-07-22T10:09:51;10.70;;;8.87;;
15340;SDS011;7770;52.158;5.372;2023-07-22T10:12:41;9.27;;;8.30;;
15340;SDS011;7770;52.158;5.372;2023-07-22T10:15:31;9.07;;;7.87;;
15340;SDS011;7770;52.158;5.372;2023-07-22T10:18:19;10.20;;;9.20;;
15340;SDS011;7770;52.158;5.372;2023-07-22T10:21:08;10.20;;;9.20;;
15340;SDS011;7770;52.158;5.372;2023-07-22T10:23:54;10.10;;;8.73;;
15340;SDS011;7770;52.158;5.372;2023-07-22T10:26:41;8.33;;;7.50;;
15340;SDS011;7770;52.158;5.372;2023-07-22T10:29:27;8.97;;;8.03;;
15340;SDS011;7770;52.158;5.372;2023-07-22T10:32:14;8.93;;;8.03;;
15340;SDS011;7770;52.158;5.372;2023-07-22T10:35:02;9.87;;;7.73;;
15340;SDS011;7770;52.158;5.372;2023-07-22T10:37:49;9.87;;;7.73;;
15340;SDS011;7770;52.158;5.372;2023-07-22T10:40:49;9.40;;;7.17;;
15340;SDS011;7770;52.158;5.372;2023-07-22T10:43:39;8.50;;;7.37;;
15340;SDS011;7770;52.158;5.372;2023-07-22T10:46:33;7.90;;;7.10;;
15340;SDS011;7770;52.158;5.372;2023-07-22T10:49:42;9.07;;;7.53;;
15340;SDS011;7770;52.158;5.372;2023-07-22T10:52:40;11.10;;;8.17;;
15340;SDS011;7770;52.158;5.372;2023-07-22T10:55:29;9.50;;;6.97;;
15340;SDS011;7770;52.158;5.372;2023-07-22T10:58:15;9.60;;;7.40;;
15340;SDS011;7770;52.158;5.372;2023-07-22T11:04:25;9.30;;;7.60;;
15340;SDS011;7770;52.158;5.372;2023-07-22T11:10:29;10.37;;;8.73;;
15340;SDS011;7770;52.158;5.372;2023-07-22T11:13:15;11.20;;;9.53;;
15340;SDS011;7770;52.158;5.372;2023-07-22T11:16:01;10.47;;;9.40;;
15340;SDS011;7770;52.158;5.372;2023-07-22T11:18:47;9.33;;;8.43;;
15340;SDS011;7770;52.158;5.372;2023-07-22T11:21:32;10.00;;;8.87;;
15340;SDS011;7770;52.158;5.372;2023-07-22T11:24:19;10.77;;;8.83;;
15340;SDS011;7770;52.158;5.372;2023-07-22T11:27:07;9.80;;;8.80;;
15340;SDS011;7770;52.158;5.372;2023-07-22T11:29:53;8.83;;;7.93;;
15340;SDS011;7770;52.158;5.372;2023-07-22T11:32:44;9.33;;;7.00;;
15340;SDS011;7770;52.158;5.372;2023-07-22T11:35:30;7.37;;;6.67;;
15340;SDS011;7770;52.158;5.372;2023-07-22T11:38:16;8.13;;;7.03;;
15340;SDS011;7770;52.158;5.372;2023-07-22T11:41:02;7.53;;;6.63;;
15340;SDS011;7770;52.158;5.372;2023-07-22T11:43:48;8.80;;;7.20;;
15340;SDS011;7770;52.158;5.372;2023-07-22T11:46:34;8.13;;;7.27;;
15340;SDS011;7770;52.158;5.372;2023-07-22T11:49:31;11.10;;;7.37;;
15340;SDS011;7770;52.158;5.372;2023-07-22T11:52:21;8.73;;;7.23;;
15340;SDS011;7770;52.158;5.372;2023-07-22T11:55:07;10.73;;;6.83;;
15340;SDS011;7770;52.158;5.372;2023-07-22T11:57:54;7.57;;;6.50;;
15340;SDS011;7770;52.158;5.372;2023-07-22T12:00:44;7.37;;;6.57;;
15340;SDS011;7770;52.158;5.372;2023-07-22T12:03:33;8.77;;;6.80;;
15340;SDS011;7770;52.158;5.372;2023-07-22T12:06:19;8.43;;;7.07;;
15340;SDS011;7770;52.158;5.372;2023-07-22T12:09:06;9.30;;;7.53;;
15340;SDS011;7770;52.158;5.372;2023-07-22T12:11:55;12.70;;;8.80;;
15340;SDS011;7770;52.158;5.372;2023-07-22T12:14:43;9.70;;;8.70;;
15340;SDS011;7770;52.158;5.372;2023-07-22T12:17:30;10.47;;;9.20;;
15340;SDS011;7770;52.158;5.372;2023-07-22T12:20:29;10.63;;;8.97;;
15340;SDS011;7770;52.158;5.372;2023-07-22T12:23:19;10.30;;;8.80;;
15340;SDS011;7770;52.158;5.372;2023-07-22T12:26:06;11.57;;;9.23;;
15340;SDS011;7770;52.158;5.372;2023-07-22T12:28:53;11.97;;;10.10;;
15340;SDS011;7770;52.158;5.372;2023-07-22T12:31:39;10.77;;;9.70;;
15340;SDS011;7770;52.158;5.372;2023-07-22T12:34:25;12.07;;;10.80;;
15340;SDS011;7770;52.158;5.372;2023-07-22T12:37:11;11.97;;;10.87;;
15340;SDS011;7770;52.158;5.372;2023-07-22T12:39:57;10.93;;;9.83;;
15340;SDS011;7770;52.158;5.372;2023-07-22T12:42:43;10.83;;;9.83;;
15340;SDS011;7770;52.158;5.372;2023-07-22T12:45:29;10.90;;;9.80;;
15340;SDS011;7770;52.158;5.372;2023-07-22T12:48:16;12.47;;;10.33;;
15340;SDS011;7770;52.158;5.372;2023-07-22T12:51:02;14.37;;;11.67;;
15340;SDS011;7770;52.158;5.372;2023-07-22T12:53:48;14.23;;;11.47;;
15340;SDS011;7770;52.158;5.372;2023-07-22T12:56:34;13.30;;;12.00;;
15340;SDS011;7770;52.158;5.372;2023-07-22T12:59:20;13.73;;;12.33;;
15340;SDS011;7770;52.158;5.372;2023-07-22T13:02:06;16.60;;;13.13;;
15340;SDS011;7770;52.158;5.372;2023-07-22T13:04:52;14.33;;;12.17;;
15340;SDS011;7770;52.158;5.372;2023-07-22T13:07:39;14.87;;;13.47;;
15340;SDS011;7770;52.158;5.372;2023-07-22T13:10:25;14.13;;;12.67;;
15340;SDS011;7770;52.158;5.372;2023-07-22T13:13:11;15.10;;;13.60;;
15340;SDS011;7770;52.158;5.372;2023-07-22T13:15:57;15.33;;;13.77;;
15340;SDS011;7770;52.158;5.372;2023-07-22T13:18:43;15.57;;;13.87;;
15340;SDS011;7770;52.158;5.372;2023-07-22T13:21:29;15.10;;;13.60;;
15340;SDS011;7770;52.158;5.372;2023-07-22T13:24:15;15.37;;;13.33;;
15340;SDS011;7770;52.158;5.372;2023-07-22T13:27:01;16.73;;;13.37;;
15340;SDS011;7770;52.158;5.372;2023-07-22T13:29:47;14.13;;;12.67;;
15340;SDS011;7770;52.158;5.372;2023-07-22T13:32:33;15.63;;;12.90;;
15340;SDS011;7770;52.158;5.372;2023-07-22T13:35:19;14.70;;;13.00;;
15340;SDS011;7770;52.158;5.372;2023-07-22T13:38:05;12.60;;;11.37;;
15340;SDS011;7770;52.158;5.372;2023-07-22T13:40:51;13.00;;;11.70;;
15340;SDS011;7770;52.158;5.372;2023-07-22T13:43:37;12.87;;;11.57;;
15340;SDS011;7770;52.158;5.372;2023-07-22T13:46:23;14.73;;;11.93;;
15340;SDS011;7770;52.158;5.372;2023-07-22T13:49:09;10.67;;;9.57;;
15340;SDS011;7770;52.158;5.372;2023-07-22T13:51:55;11.30;;;8.40;;
15340;SDS011;7770;52.158;5.372;2023-07-22T13:54:41;9.10;;;7.50;;
15340;SDS011;7770;52.158;5.372;2023-07-22T13:57:27;9.10;;;7.20;;
15340;SDS011;7770;52.158;5.372;2023-07-22T14:00:14;8.50;;;6.20;;
15340;SDS011;7770;52.158;5.372;2023-07-22T14:03:00;7.80;;;6.30;;
15340;SDS011;7770;52.158;5.372;2023-07-22T14:05:46;7.27;;;6.27;;
15340;SDS011;7770;52.158;5.372;2023-07-22T14:08:32;8.03;;;6.10;;
15340;SDS011;7770;52.158;5.372;2023-07-22T14:11:18;6.77;;;5.90;;
15340;SDS011;7770;52.158;5.372;2023-07-22T14:14:05;7.63;;;6.00;;
15340;SDS011;7770;52.158;5.372;2023-07-22T14:16:52;6.97;;;5.47;;
15340;SDS011;7770;52.158;5.372;2023-07-22T14:19:38;8.17;;;4.90;;
15340;SDS011;7770;52.158;5.372;2023-07-22T14:22:24;5.53;;;5.03;;
15340;SDS011;7770;52.158;5.372;2023-07-22T14:25:10;5.67;;;5.17;;
15340;SDS011;7770;52.158;5.372;2023-07-22T14:27:56;8.47;;;5.27;;
15340;SDS011;7770;52.158;5.372;2023-07-22T14:30:42;5.83;;;5.23;;
15340;SDS011;7770;52.158;5.372;2023-07-22T14:33:28;6.57;;;4.77;;
15340;SDS011;7770;52.158;5.372;2023-07-22T14:36:14;5.73;;;5.20;;
15340;SDS011;7770;52.158;5.372;2023-07-22T14:39:00;6.80;;;4.97;;
15340;SDS011;7770;52.158;5.372;2023-07-22T14:41:47;5.90;;;4.87;;
15340;SDS011;7770;52.158;5.372;2023-07-22T14:44:33;6.20;;;5.00;;
15340;SDS011;7770;52.158;5.372;2023-07-22T14:47:19;5.40;;;4.90;;
15340;SDS011;7770;52.158;5.372;2023-07-22T14:50:05;7.10;;;4.87;;
15340;SDS011;7770;52.158;5.372;2023-07-22T14:52:51;9.10;;;5.03;;
15340;SDS011;7770;52.158;5.372;2023-07-22T14:55:37;5.73;;;4.70;;
15340;SDS011;7770;52.158;5.372;2023-07-22T14:58:23;5.97;;;5.00;;
15340;SDS011;7770;52.158;5.372;2023-07-22T15:01:09;6.87;;;5.00;;
15340;SDS011;7770;52.158;5.372;2023-07-22T15:03:55;5.90;;;4.93;;
15340;SDS011;7770;52.158;5.372;2023-07-22T15:06:41;7.57;;;5.20;;
15340;SDS011;7770;52.158;5.372;2023-07-22T15:09:27;8.20;;;5.17;;
15340;SDS011;7770;52.158;5.372;2023-07-22T15:12:13;7.13;;;5.50;;
15340;SDS011;7770;52.158;5.372;2023-07-22T15:14:59;7.07;;;5.33;;
15340;SDS011;7770;52.158;5.372;2023-07-22T15:17:46;7.17;;;6.10;;
15340;SDS011;7770;52.158;5.372;2023-07-22T15:20:32;6.90;;;5.13;;
15340;SDS011;7770;52.158;5.372;2023-07-22T15:23:18;7.90;;;5.43;;
15340;SDS011;7770;52.158;5.372;2023-07-22T15:26:05;5.50;;;5.00;;
15340;SDS011;7770;52.158;5.372;2023-07-22T15:28:51;5.57;;;5.00;;
15340;SDS011;7770;52.158;5.372;2023-07-22T15:31:38;6.50;;;5.30;;
15340;SDS011;7770;52.158;5.372;2023-07-22T15:34:26;5.53;;;5.00;;
15340;SDS011;7770;52.158;5.372;2023-07-22T15:37:13;5.57;;;5.00;;
15340;SDS011;7770;52.158;5.372;2023-07-22T15:39:59;6.90;;;5.33;;
15340;SDS011;7770;52.158;5.372;2023-07-22T15:42:45;8.10;;;5.50;;
15340;SDS011;7770;52.158;5.372;2023-07-22T15:45:31;6.17;;;4.90;;
15340;SDS011;7770;52.158;5.372;2023-07-22T15:48:17;7.07;;;5.23;;
15340;SDS011;7770;52.158;5.372;2023-07-22T15:51:03;5.83;;;4.53;;
15340;SDS011;7770;52.158;5.372;2023-07-22T15:53:49;6.17;;;4.87;;
15340;SDS011;7770;52.158;5.372;2023-07-22T15:56:35;7.77;;;5.20;;
15340;SDS011;7770;52.158;5.372;2023-07-22T15:59:22;5.00;;;4.50;;
15340;SDS011;7770;52.158;5.372;2023-07-22T16:02:08;6.00;;;4.80;;
15340;SDS011;7770;52.158;5.372;2023-07-22T16:04:54;5.77;;;4.70;;
15340;SDS011;7770;52.158;5.372;2023-07-22T16:07:40;5.13;;;4.60;;
15340;SDS011;7770;52.158;5.372;2023-07-22T16:10:27;5.23;;;4.47;;
15340;SDS011;7770;52.158;5.372;2023-07-22T16:13:13;7.07;;;6.37;;
15340;SDS011;7770;52.158;5.372;2023-07-22T16:15:59;6.00;;;5.40;;
15340;SDS011;7770;52.158;5.372;2023-07-22T16:18:45;5.17;;;4.67;;
15340;SDS011;7770;52.158;5.372;2023-07-22T16:21:31;7.03;;;5.03;;
15340;SDS011;7770;52.158;5.372;2023-07-22T16:24:17;5.20;;;4.63;;
15340;SDS011;7770;52.158;5.372;2023-07-22T16:27:03;8.53;;;4.63;;
15340;SDS011;7770;52.158;5.372;2023-07-22T16:29:49;6.10;;;4.87;;
15340;SDS011;7770;52.158;5.372;2023-07-22T16:32:36;7.50;;;4.87;;
15340;SDS011;7770;52.158;5.372;2023-07-22T16:35:22;5.60;;;4.53;;
15340;SDS011;7770;52.158;5.372;2023-07-22T16:38:09;6.80;;;4.57;;
15340;SDS011;7770;52.158;5.372;2023-07-22T16:40:55;5.70;;;4.30;;
15340;SDS011;7770;52.158;5.372;2023-07-22T16:43:47;5.03;;;4.47;;
15340;SDS011;7770;52.158;5.372;2023-07-22T16:46:33;6.93;;;4.60;;